Gainesville, Missouri
Current Conditions -  °F | °C
As of 3:53 PM on Friday 24 Oct 2014 (Local Time) from KBPK Reporting Station
Clear Clear  
Wind Chill: 23°   Ceiling: Unl
Heat Index: 23°   Visibility: 8mi
Dew Point: 14°   Wind: 0mph
Humidity: 59%   Direction: NA
Pressure: 30.07"   Gusts: NA
Location:  36.6°N, 92.43°W
Report Text: KBPK 242053Z AUTO 00000KT 8SM CLR 23/14 A3007 RMK AO2 SLP177 T02280144 56019
Loading
Personal Weather Stations






























Interactive Weather Map
Tropical Storm Tracking
New forecast layout! Learn more

10-Day Weather Forecast

Advertisements
Track Severe Weather on mobile